createdAt,value
2023-01-01T01:13:57.014Z,14.60
2023-01-01T01:16:31.893Z,13.68
2023-01-01T01:19:01.553Z,13.87
2023-01-01T01:21:30.144Z,12.68
2023-01-01T01:24:01.463Z,15.80
2023-01-01T01:26:31.338Z,15.73
2023-01-01T01:28:58.705Z,11.63
2023-01-01T01:31:28.992Z,16.37
2023-01-01T01:33:55.898Z,18.67
2023-01-01T01:36:22.640Z,19.50
2023-01-01T01:38:49.224Z,20.45
2023-01-01T01:41:27.197Z,30.10
2023-01-01T01:44:04.832Z,24.27
2023-01-01T01:46:41.905Z,21.65
2023-01-01T01:49:29.048Z,23.90
2023-01-01T01:51:56.562Z,24.73
2023-01-01T01:54:27.249Z,23.63
2023-01-01T01:57:01.269Z,23.67
2023-01-01T01:59:31.935Z,24.10
2023-01-01T02:01:59.180Z,25.80
2023-01-01T02:04:25.925Z,26.25
2023-01-01T02:06:54.147Z,30.92
2023-01-01T02:09:21.268Z,28.63
2023-01-01T02:11:47.761Z,29.20
2023-01-01T02:14:14.490Z,30.45
2023-01-01T02:16:49.120Z,27.50
2023-01-01T02:19:38.725Z,27.35
2023-01-01T02:22:16.420Z,26.33
2023-01-01T02:24:49.313Z,26.48
2023-01-01T02:27:15.773Z,27.98
2023-01-01T02:29:55.874Z,26.23
2023-01-01T02:32:31.932Z,24.92
2023-01-01T02:35:25.028Z,25.70
2023-01-01T02:37:56.906Z,24.92
2023-01-01T02:40:24.953Z,25.23
2023-01-01T02:42:53.210Z,22.73
2023-01-01T02:45:19.874Z,24.08
2023-01-01T02:47:49.154Z,24.60
2023-01-01T02:50:20.359Z,27.13
2023-01-01T02:53:13.421Z,28.63
2023-01-01T02:55:46.112Z,29.05
2023-01-01T02:58:46.221Z,27.35
2023-01-01T03:01:22.337Z,27.60
2023-01-01T03:04:04.318Z,24.90
2023-01-01T03:06:45.844Z,26.95
2023-01-01T03:09:26.069Z,24.38
2023-01-01T03:12:39.437Z,27.13
2023-01-01T03:15:14.827Z,23.57
2023-01-01T03:17:57.355Z,22.67
2023-01-01T03:20:30.538Z,18.20
2023-01-01T03:23:02.970Z,16.50
2023-01-01T03:25:34.041Z,15.90
2023-01-01T03:28:05.234Z,17.73
2023-01-01T03:30:36.256Z,17.15
2023-01-01T03:33:08.759Z,17.30
2023-01-01T03:36:03.823Z,13.40
2023-01-01T03:38:45.861Z,14.18
2023-01-01T03:41:41.704Z,14.43
2023-01-01T03:44:47.486Z,12.57
2023-01-01T03:47:15.040Z,11.45
2023-01-01T03:49:42.794Z,10.85
2023-01-01T03:52:30.788Z,11.05
2023-01-01T03:55:12.271Z,12.40
2023-01-01T03:58:12.887Z,12.75
2023-01-01T04:01:08.968Z,10.15
2023-01-01T04:03:38.084Z,10.48
2023-01-01T04:06:05.854Z,11.00
2023-01-01T04:08:34.877Z,9.13
2023-01-01T04:11:26.446Z,10.48
2023-01-01T04:13:53.351Z,9.73
2023-01-01T04:16:19.927Z,10.90
2023-01-01T04:18:46.436Z,9.05
2023-01-01T04:21:12.974Z,9.37
2023-01-01T04:23:39.491Z,10.25
2023-01-01T04:26:06.029Z,10.02
2023-01-01T04:28:32.566Z,9.80
2023-01-01T04:31:02.738Z,8.80
2023-01-01T04:33:29.335Z,9.10
2023-01-01T04:35:55.787Z,9.85
2023-01-01T04:38:22.246Z,8.10
2023-01-01T04:40:58.512Z,10.32
2023-01-01T04:43:25.135Z,7.82
2023-01-01T04:45:56.348Z,8.77
2023-01-01T04:48:22.909Z,9.15
2023-01-01T04:51:01.256Z,8.75
2023-01-01T04:53:33.519Z,8.80
2023-01-01T04:56:20.213Z,9.23
2023-01-01T04:58:47.806Z,9.13
2023-01-01T05:01:17.133Z,7.35
2023-01-01T05:03:43.734Z,8.73
2023-01-01T05:06:11.838Z,8.10
2023-01-01T05:08:40.952Z,8.68
2023-01-01T05:11:13.625Z,9.03
2023-01-01T05:13:43.315Z,8.52
2023-01-01T05:16:12.064Z,8.98
2023-01-01T05:18:39.639Z,7.82
2023-01-01T05:21:15.090Z,7.13
2023-01-01T05:23:41.827Z,8.70
2023-01-01T05:26:13.409Z,8.02
2023-01-01T05:28:40.206Z,8.30
2023-01-01T05:31:09.065Z,8.10
2023-01-01T05:33:36.519Z,7.95
2023-01-01T05:36:04.128Z,6.67
2023-01-01T05:38:30.751Z,7.50
2023-01-01T05:40:57.643Z,7.20
2023-01-01T05:43:24.594Z,8.15
2023-01-01T05:46:01.134Z,7.70
2023-01-01T05:48:28.077Z,9.00
2023-01-01T05:50:54.757Z,7.95
2023-01-01T05:53:21.305Z,8.40
2023-01-01T05:55:52.953Z,6.70
2023-01-01T05:58:19.747Z,6.07
2023-01-01T06:00:46.267Z,7.00
2023-01-01T06:03:12.782Z,7.13
2023-01-01T06:05:39.243Z,6.88
2023-01-01T06:08:05.791Z,6.95
2023-01-01T06:10:32.313Z,6.40
2023-01-01T06:12:59.115Z,6.83
2023-01-01T06:15:26.376Z,6.82
2023-01-01T06:17:52.933Z,6.07
2023-01-01T06:20:19.653Z,5.85
2023-01-01T06:22:46.334Z,6.28
2023-01-01T06:25:12.968Z,4.87
2023-01-01T06:27:39.437Z,4.35
2023-01-01T06:30:07.314Z,5.35
2023-01-01T06:32:34.148Z,5.40
2023-01-01T06:35:00.626Z,5.22
2023-01-01T06:37:28.263Z,5.13
2023-01-01T06:39:54.804Z,4.28
2023-01-01T06:42:21.254Z,4.07
2023-01-01T06:44:47.751Z,4.45
2023-01-01T06:47:14.288Z,4.30
2023-01-01T06:49:40.747Z,4.43
2023-01-01T06:52:07.294Z,5.28
2023-01-01T06:54:33.782Z,4.53
2023-01-01T06:57:00.260Z,4.00
2023-01-01T06:59:26.783Z,4.82
2023-01-01T07:01:53.311Z,4.87
2023-01-01T07:04:19.930Z,6.35
2023-01-01T07:06:46.438Z,4.57
2023-01-01T07:09:12.951Z,4.13
2023-01-01T07:11:39.495Z,4.43
2023-01-01T07:14:06.161Z,5.20
2023-01-01T07:16:32.816Z,4.65
2023-01-01T07:19:00.796Z,4.45
2023-01-01T07:21:55.012Z,4.80
2023-01-01T07:24:22.046Z,4.38
2023-01-01T07:26:49.102Z,4.40
2023-01-01T07:29:15.760Z,4.13
2023-01-01T07:31:43.850Z,5.22
2023-01-01T07:34:15.062Z,4.30
2023-01-01T07:36:42.046Z,5.50
2023-01-01T07:39:08.831Z,4.43
2023-01-01T07:41:35.731Z,4.53
2023-01-01T07:44:02.231Z,4.30
2023-01-01T07:46:28.921Z,4.28
2023-01-01T07:48:56.400Z,4.68
2023-01-01T07:51:23.032Z,4.13
2023-01-01T07:53:49.609Z,4.00
2023-01-01T07:56:16.299Z,3.90
2023-01-01T07:58:42.899Z,3.80
2023-01-01T08:01:11.814Z,3.78
2023-01-01T08:03:38.638Z,3.70
2023-01-01T08:06:12.646Z,3.75
2023-01-01T08:08:39.901Z,3.70
2023-01-01T08:11:07.020Z,3.42
2023-01-01T08:13:33.532Z,3.22
2023-01-01T08:16:00.294Z,3.10
2023-01-01T08:18:26.957Z,2.70
2023-01-01T08:20:54.118Z,3.40
2023-01-01T08:23:20.710Z,2.78
2023-01-01T08:25:47.229Z,2.40
2023-01-01T08:28:13.768Z,3.23
2023-01-01T08:30:40.336Z,3.05
2023-01-01T08:33:06.811Z,2.88
2023-01-01T08:35:35.898Z,3.00
2023-01-01T08:38:02.403Z,2.70
2023-01-01T08:40:28.959Z,2.17
2023-01-01T08:42:55.522Z,2.35
2023-01-01T08:45:22.096Z,2.55
2023-01-01T08:47:48.579Z,2.75
2023-01-01T08:50:15.060Z,2.15
2023-01-01T08:52:41.514Z,2.60
2023-01-01T08:55:08.713Z,2.95
2023-01-01T08:57:35.238Z,3.13
2023-01-01T09:00:01.924Z,2.30
2023-01-01T09:02:29.907Z,2.58
2023-01-01T09:04:56.574Z,2.03
2023-01-01T09:07:23.106Z,2.58
2023-01-01T09:09:49.587Z,2.42
2023-01-01T09:12:16.620Z,2.45
2023-01-01T09:14:43.238Z,2.25
2023-01-01T09:17:09.770Z,2.70
2023-01-01T09:19:36.324Z,2.47
2023-01-01T09:22:02.937Z,2.58
2023-01-01T09:24:29.445Z,2.92
2023-01-01T09:26:56.176Z,2.25
2023-01-01T09:29:22.687Z,2.43
2023-01-01T09:31:52.159Z,2.50
2023-01-01T09:34:22.576Z,2.88
2023-01-01T09:36:49.120Z,2.40
2023-01-01T09:39:16.036Z,2.92
2023-01-01T09:42:07.212Z,2.83
2023-01-01T09:45:05.563Z,2.72
2023-01-01T09:47:34.914Z,2.80
2023-01-01T09:50:23.886Z,3.10
2023-01-01T09:52:55.487Z,2.60
2023-01-01T09:55:34.615Z,2.33
2023-01-01T09:58:01.299Z,3.10
2023-01-01T10:00:32.056Z,3.13
2023-01-01T10:03:04.440Z,2.20
2023-01-01T10:05:42.940Z,2.17
2023-01-01T10:08:41.064Z,1.90
2023-01-01T10:11:16.018Z,2.63
2023-01-01T10:13:45.142Z,2.45
2023-01-01T10:16:28.271Z,1.60
2023-01-01T10:18:57.562Z,3.13
2023-01-01T10:21:33.853Z,1.80
2023-01-01T10:24:25.457Z,1.90
2023-01-01T10:26:55.148Z,2.10
2023-01-01T10:29:36.121Z,1.35
2023-01-01T10:32:17.381Z,1.90
2023-01-01T10:34:43.903Z,1.40
2023-01-01T10:37:12.025Z,1.50
2023-01-01T10:39:39.503Z,1.60
2023-01-01T10:42:06.133Z,1.30
2023-01-01T10:44:34.523Z,3.08
2023-01-01T10:47:19.929Z,2.20
2023-01-01T10:50:10.097Z,1.40
2023-01-01T10:52:40.488Z,1.50
2023-01-01T10:55:20.303Z,2.25
2023-01-01T10:57:46.794Z,1.35
2023-01-01T11:00:28.211Z,1.90
2023-01-01T11:03:19.533Z,1.88
2023-01-01T11:06:21.782Z,2.55
2023-01-01T11:08:51.252Z,4.55
2023-01-01T11:11:42.922Z,2.30
2023-01-01T11:14:25.886Z,1.40
2023-01-01T11:16:53.713Z,1.27
2023-01-01T11:19:27.759Z,1.50
2023-01-01T11:21:54.468Z,1.60
2023-01-01T11:24:23.986Z,1.48
2023-01-01T11:26:55.083Z,1.20
2023-01-01T11:29:29.377Z,2.38
2023-01-01T11:31:57.147Z,1.85
2023-01-01T11:34:39.175Z,1.65
2023-01-01T11:37:26.203Z,1.85
2023-01-01T11:39:55.458Z,1.40
2023-01-01T11:42:28.493Z,1.95
2023-01-01T11:45:06.504Z,1.50
2023-01-01T11:47:41.623Z,1.42
2023-01-01T11:50:24.761Z,1.50
2023-01-01T11:52:52.921Z,2.43
2023-01-01T11:55:26.597Z,2.38
2023-01-01T11:58:05.226Z,2.10
2023-01-01T12:00:35.856Z,2.00
2023-01-01T12:03:20.748Z,1.95
2023-01-01T12:05:57.627Z,1.40
2023-01-01T12:08:33.408Z,2.22
2023-01-01T12:11:07.778Z,1.55
2023-01-01T12:13:44.731Z,1.48
2023-01-01T12:16:16.713Z,1.48
2023-01-01T12:18:58.453Z,1.87
2023-01-01T12:21:26.819Z,1.88
2023-01-01T12:23:53.974Z,1.75
2023-01-01T12:26:42.909Z,1.92
2023-01-01T12:29:33.630Z,2.25
2023-01-01T12:32:02.800Z,1.63
2023-01-01T12:34:33.076Z,1.95
2023-01-01T12:37:14.973Z,1.65
2023-01-01T12:40:14.990Z,1.90
2023-01-01T12:43:02.559Z,2.35
2023-01-01T12:45:57.014Z,1.90
2023-01-01T12:48:33.943Z,1.55
2023-01-01T12:51:20.908Z,2.40
2023-01-01T12:54:34.351Z,1.90
2023-01-01T12:57:14.443Z,1.80
2023-01-01T12:59:47.839Z,1.47
2023-01-01T13:02:20.704Z,1.88
2023-01-01T13:04:51.814Z,1.60
2023-01-01T13:07:30.239Z,1.63
2023-01-01T13:10:03.524Z,1.98
2023-01-01T13:12:32.785Z,2.50
2023-01-01T13:14:59.460Z,1.60
2023-01-01T13:17:28.768Z,1.65
2023-01-01T13:20:14.162Z,2.03
2023-01-01T13:22:43.578Z,1.80
2023-01-01T13:25:13.815Z,1.40
2023-01-01T13:28:03.378Z,1.95
2023-01-01T13:30:35.974Z,1.90
2023-01-01T13:33:26.388Z,1.95
2023-01-01T13:36:08.839Z,1.75
2023-01-01T13:39:00.617Z,1.53
2023-01-01T13:41:35.373Z,1.67
2023-01-01T13:44:03.066Z,1.75
2023-01-01T13:46:52.362Z,3.92
2023-01-01T13:49:56.471Z,1.73
2023-01-01T13:52:47.408Z,1.70
2023-01-01T13:55:38.516Z,1.42
2023-01-01T13:58:43.307Z,1.77
2023-01-01T14:01:12.698Z,1.10
2023-01-01T14:03:43.420Z,1.85
2023-01-01T14:06:19.607Z,1.20
2023-01-01T14:08:46.106Z,1.90
2023-01-01T14:11:24.843Z,1.83
2023-01-01T14:13:51.527Z,1.70
2023-01-01T14:16:18.283Z,2.42
2023-01-01T14:18:48.004Z,1.50
2023-01-01T14:21:22.285Z,1.52
2023-01-01T14:23:58.303Z,1.67
2023-01-01T14:26:27.293Z,1.90
2023-01-01T14:28:56.284Z,1.67
2023-01-01T14:31:27.166Z,1.50
2023-01-01T14:33:53.713Z,2.20
2023-01-01T14:36:20.153Z,1.80
2023-01-01T14:38:49.409Z,1.75
2023-01-01T14:41:21.943Z,1.60
2023-01-01T14:43:50.960Z,1.70
2023-01-01T14:46:20.404Z,1.30
2023-01-01T14:48:49.640Z,2.00
2023-01-01T14:51:20.861Z,2.10
2023-01-01T14:53:48.880Z,2.05
2023-01-01T14:56:31.239Z,1.83
2023-01-01T14:59:13.196Z,2.20
2023-01-01T15:01:41.603Z,2.15
2023-01-01T15:04:20.910Z,1.48
2023-01-01T15:06:54.099Z,1.65
2023-01-01T15:09:20.898Z,1.47
2023-01-01T15:11:47.550Z,1.50
2023-01-01T15:14:38.073Z,1.88
2023-01-01T15:17:09.844Z,1.80
2023-01-01T15:19:38.417Z,1.98
2023-01-01T15:22:21.327Z,1.83
2023-01-01T15:24:49.685Z,1.98
2023-01-01T15:27:29.374Z,1.88
2023-01-01T15:29:57.107Z,1.52
2023-01-01T15:32:27.032Z,2.30
2023-01-01T15:34:56.979Z,1.40
2023-01-01T15:37:28.585Z,1.40
2023-01-01T15:40:00.409Z,1.80
2023-01-01T15:42:34.796Z,1.60
2023-01-01T15:45:38.312Z,1.80
2023-01-01T15:48:04.920Z,1.67
2023-01-01T15:50:54.810Z,2.00
2023-01-01T15:53:30.198Z,2.42
2023-01-01T15:56:02.524Z,1.65
2023-01-01T15:58:43.640Z,1.88
2023-01-01T16:01:14.376Z,1.77
2023-01-01T16:03:42.207Z,2.60
2023-01-01T16:06:15.843Z,2.53
2023-01-01T16:08:42.411Z,2.40
2023-01-01T16:11:09.183Z,2.70
2023-01-01T16:13:35.718Z,1.93
2023-01-01T16:16:03.614Z,2.20
2023-01-01T16:18:35.119Z,2.33
2023-01-01T16:21:03.384Z,1.90
2023-01-01T16:23:30.126Z,2.22
2023-01-01T16:25:56.747Z,1.97
2023-01-01T16:28:23.666Z,1.70
2023-01-01T16:30:50.395Z,1.92
2023-01-01T16:33:20.104Z,2.28
2023-01-01T16:35:46.831Z,2.35
2023-01-01T16:38:13.477Z,2.10
2023-01-01T16:40:40.044Z,2.40
2023-01-01T16:43:15.120Z,2.05
2023-01-01T16:45:41.802Z,2.25
2023-01-01T16:48:08.562Z,2.40
2023-01-01T16:50:35.275Z,2.40
2023-01-01T16:53:01.778Z,3.63
2023-01-01T16:55:28.268Z,4.10
2023-01-01T16:58:13.667Z,3.67
2023-01-01T17:00:41.372Z,4.57
2023-01-01T17:03:09.517Z,2.93
2023-01-01T17:05:43.660Z,4.90
2023-01-01T17:08:10.807Z,5.30
2023-01-01T17:10:38.031Z,4.47
2023-01-01T17:13:04.954Z,3.35
2023-01-01T17:15:32.243Z,3.80
2023-01-01T17:17:59.179Z,3.40
2023-01-01T17:20:26.124Z,18.88
2023-01-01T17:22:53.802Z,3.85
2023-01-01T17:25:20.747Z,4.30
2023-01-01T17:27:47.554Z,4.37
2023-01-01T17:30:14.792Z,5.90
2023-01-01T17:32:41.332Z,5.35
2023-01-01T17:35:08.097Z,6.63
2023-01-01T17:37:34.672Z,6.18
2023-01-01T17:40:01.392Z,4.07
2023-01-01T17:42:27.958Z,3.63
2023-01-01T17:44:54.459Z,4.40
2023-01-01T17:47:20.951Z,3.92
2023-01-01T17:49:48.449Z,4.57
2023-01-01T17:52:15.032Z,3.90
2023-01-01T17:54:41.575Z,5.50
2023-01-01T17:57:08.132Z,4.97
2023-01-01T17:59:34.652Z,5.60
2023-01-01T18:02:01.387Z,3.65
2023-01-01T18:04:27.974Z,4.57
2023-01-01T18:06:56.732Z,5.88
2023-01-01T18:09:25.262Z,9.63
2023-01-01T18:11:51.872Z,12.27
2023-01-01T18:14:22.644Z,6.38
2023-01-01T18:16:51.416Z,3.70
2023-01-01T18:19:17.950Z,5.60
2023-01-01T18:21:44.546Z,4.20
2023-01-01T18:24:13.537Z,5.28
2023-01-01T18:26:40.510Z,5.10
2023-01-01T18:29:07.261Z,5.43
2023-01-01T18:31:35.370Z,4.80
2023-01-01T18:34:04.316Z,6.07
2023-01-01T18:36:33.596Z,6.40
2023-01-01T18:39:20.237Z,6.88
2023-01-01T18:42:15.179Z,7.30
2023-01-01T18:44:41.884Z,6.55
2023-01-01T18:47:19.603Z,8.27
2023-01-01T18:49:52.205Z,7.65
2023-01-01T18:52:27.251Z,8.65
2023-01-01T18:55:10.792Z,9.70
2023-01-01T18:57:38.405Z,8.75
2023-01-01T19:00:19.177Z,8.63
2023-01-01T19:02:53.000Z,8.38
2023-01-01T19:05:27.224Z,8.45
2023-01-01T19:08:12.969Z,8.20
2023-01-01T19:10:44.072Z,8.05
2023-01-01T19:13:22.559Z,10.48
2023-01-01T19:15:56.925Z,8.32
2023-01-01T19:18:28.333Z,7.80
2023-01-01T19:21:02.425Z,20.10
2023-01-01T19:23:30.160Z,18.40
2023-01-01T19:26:02.017Z,13.15
2023-01-01T19:28:31.619Z,7.55
2023-01-01T19:30:58.401Z,8.00
2023-01-01T19:33:25.365Z,7.90
2023-01-01T19:35:51.947Z,8.00
2023-01-01T19:38:18.570Z,8.00
2023-01-01T19:40:45.277Z,7.22
2023-01-01T19:43:11.921Z,7.53
2023-01-01T19:45:38.590Z,8.70
2023-01-01T19:48:05.241Z,7.90
2023-01-01T19:50:31.754Z,8.85
2023-01-01T19:52:58.293Z,8.80
2023-01-01T19:55:26.069Z,7.38
2023-01-01T19:57:52.591Z,7.00
2023-01-01T20:00:19.155Z,7.53
2023-01-01T20:02:47.357Z,7.85
2023-01-01T20:05:14.767Z,7.63
2023-01-01T20:07:41.359Z,7.30
2023-01-01T20:10:08.296Z,7.57
2023-01-01T20:12:34.898Z,7.35
2023-01-01T20:15:01.433Z,6.85
2023-01-01T20:17:27.995Z,7.70
2023-01-01T20:19:54.823Z,7.85
2023-01-01T20:22:22.027Z,14.53
2023-01-01T20:24:48.581Z,7.40
2023-01-01T20:27:24.264Z,7.22
2023-01-01T20:29:51.396Z,8.00
2023-01-01T20:32:18.159Z,7.03
2023-01-01T20:34:44.896Z,6.70
2023-01-01T20:37:30.583Z,7.55
2023-01-01T20:39:57.229Z,6.80
2023-01-01T20:42:24.122Z,5.78
2023-01-01T20:44:50.826Z,7.13
2023-01-01T20:47:17.328Z,7.27
2023-01-01T20:49:43.815Z,7.22
2023-01-01T20:52:11.401Z,7.13
2023-01-01T20:54:37.960Z,6.28
2023-01-01T20:57:04.548Z,6.85
2023-01-01T20:59:37.016Z,5.57
2023-01-01T21:02:07.475Z,29.73
2023-01-01T21:04:38.282Z,12.68
2023-01-01T21:07:07.063Z,7.65
2023-01-01T21:09:33.839Z,7.63
2023-01-01T21:12:01.932Z,6.87
2023-01-01T21:14:28.660Z,5.03
2023-01-01T21:16:55.216Z,6.05
2023-01-01T21:19:27.356Z,5.45
2023-01-01T21:21:55.999Z,5.65
2023-01-01T21:24:26.093Z,4.70
2023-01-01T21:26:56.337Z,5.30
2023-01-01T21:29:25.068Z,3.97
2023-01-01T21:32:10.995Z,4.45
2023-01-01T21:34:44.897Z,5.65
2023-01-01T21:37:37.649Z,5.10
2023-01-01T21:40:28.598Z,5.03
2023-01-01T21:43:03.398Z,5.05
2023-01-01T21:45:42.661Z,5.28
2023-01-01T21:48:24.274Z,5.10
2023-01-01T21:50:52.021Z,5.17
2023-01-01T21:53:21.837Z,5.93
2023-01-01T21:55:54.895Z,5.65
2023-01-01T21:58:50.492Z,6.28
2023-01-01T22:01:17.094Z,5.28
2023-01-01T22:03:43.713Z,3.90
2023-01-01T22:06:15.894Z,4.18
2023-01-01T22:08:44.229Z,5.05
2023-01-01T22:11:25.791Z,4.22
2023-01-01T22:13:53.238Z,4.35
2023-01-01T22:16:29.421Z,3.67
2023-01-01T22:18:56.442Z,3.83
2023-01-01T22:21:23.480Z,3.78
2023-01-01T22:23:54.752Z,4.53
2023-01-01T22:26:27.671Z,5.18
2023-01-01T22:28:59.695Z,5.67
2023-01-01T22:31:29.852Z,5.38
2023-01-01T22:34:00.276Z,5.95
2023-01-01T22:36:30.297Z,5.40
2023-01-01T22:39:13.493Z,6.43
2023-01-01T22:41:41.899Z,5.20
2023-01-01T22:44:10.977Z,5.15
2023-01-01T22:46:40.127Z,5.20
2023-01-01T22:49:21.746Z,5.75
2023-01-01T22:51:51.550Z,7.22
2023-01-01T22:54:18.089Z,5.83
2023-01-01T22:56:44.587Z,7.85
2023-01-01T22:59:11.097Z,8.73
2023-01-01T23:01:37.657Z,8.13
2023-01-01T23:04:04.468Z,8.20
2023-01-01T23:06:32.372Z,8.50
2023-01-01T23:08:59.246Z,9.18
2023-01-01T23:11:26.800Z,10.18
2023-01-01T23:14:11.987Z,8.50
2023-01-01T23:16:38.604Z,9.20
2023-01-01T23:19:05.524Z,9.30
2023-01-01T23:21:33.604Z,9.40
2023-01-01T23:24:04.116Z,9.55
2023-01-01T23:26:31.008Z,8.75
2023-01-01T23:28:57.604Z,9.10
2023-01-01T23:31:26.562Z,9.67
2023-01-01T23:33:54.873Z,8.60
2023-01-01T23:36:23.016Z,9.43
2023-01-01T23:38:49.517Z,9.45
2023-01-01T23:41:16.374Z,9.60
2023-01-01T23:43:44.042Z,9.53
2023-01-01T23:46:13.115Z,9.20
2023-01-01T23:48:41.916Z,7.18
2023-01-01T23:51:08.929Z,7.30
2023-01-01T23:53:35.514Z,9.13
2023-01-01T23:56:02.203Z,9.07
2023-01-01T23:58:28.651Z,8.82
